Quad City International Airport
KMLI : rendu visible

Aérodrome :











RETROUVEZ-NOUS SUR...

 
LOGIN :

S'inscrire | Disclaimer

   EN    FR    IT 

 









Légende :    VFR   VFR Marginal   IFR   IFR Intensif   IFR Très Intensif
Visi : 
Plafond : 
>= 8 km
>= 3000ft
5 à 8 km
1000 à 3000 ft
1500m à 5 km
500 à 1000 ft
800 à 1500m
200 à 500 ft
< 800m
< 200 ft
Symboles :   Orages  Brouillard  Fortes neiges  Fortes précipitations  Vent > 20 kt






- Altitude de l'aérodrome : 590 ft
- Code IATA : MLI


KMLI - Quad City International

DERNIER METAR :
  • 250152Z 13007KT 10SM FEW055 25/18 A2984 RMK AO2 SLP101 T02500183

METARs EXPIRÉS :
  • 250052Z 18008KT 10SM CLR 28/18 A2982 RMK AO2 SLP093 T02780183
  • 242352Z 15007KT 10SM CLR 28/19 A2980 RMK AO2 SLP087 T02830194 10306 20278 56016

TAF KMLI
Valide du 25 à 00h jusqu'au 26 à 00h UTC


242322Z 2500/2524 VRB05KT P6SM OVC150
FM251000 17005KT P6SM SCT050
FM251400 19007KT P6SM SCT040
FM252000 18007KT P6SM SCT035 BKN100
PROB30 2520/2524 4SM -TSRA BKN035CB
FIR KZAU / Amérique du Nord



MET'MAP, la Météo Aéronautique d'un coup d'oeil ! - Copyright ORBIFLY Décembre 2007 - Disclaimer

ORBIFLY MET'MAP TEAM :

Programmation & Développement : Alexandra Zaïnal
Sur une idée originale de : Baudouin d'Aumeries
Assistance à la programmation : Marc-Olivier Méhu
Soutien technique & logistique : Manuel Goepfert

Contact : metmap@orbifly.com




SOURCES & CREDITS :

   NOAA       Earth
Advisory